Time;durP1;ratioP1;P1;durP2;ratioP2;P2;SDS_P1;SDS_P2;PMS_P1;PMS_P2;Temp;Humidity;BMP_temperature;BMP_pressure;BME280_temperature;BME280_humidity;BME280_pressure;Samples;Min_cycle;Max_cycle;Signal;HPM_P1;HPM_P2
2024/01/11 00:01:54;;;;;;;9.40;3.92;;;-4.00;99.90;;;-4.69;100.00;102451.63;5251308;28;20410;-44
2024/01/11 00:04:26;;;;;;;4.15;3.78;;;-4.00;99.90;;;-4.70;100.00;102459.97;5267870;28;20052;-43
2024/01/11 00:06:59;;;;;;;5.35;4.07;;;-4.00;99.90;;;-4.70;100.00;102448.88;5255999;28;20040;-43
2024/01/11 00:09:34;;;;;;;4.78;3.80;;;-4.10;99.90;;;-4.71;100.00;102460.69;5252890;28;20049;-46
2024/01/11 00:12:08;;;;;;;6.25;2.97;;;-4.10;99.90;;;-4.74;100.00;102452.72;5254936;28;20041;-45
2024/01/11 00:14:42;;;;;;;6.97;4.43;;;-4.10;99.90;;;-4.75;100.00;102455.97;5252559;28;20052;-43
2024/01/11 00:17:15;;;;;;;5.30;4.82;;;-4.10;99.90;;;-4.78;100.00;102463.22;5247872;28;20051;-44
2024/01/11 00:19:48;;;;;;;7.88;3.28;;;-4.10;99.90;;;-4.79;100.00;102461.41;5253905;28;20071;-45
2024/01/11 00:22:21;;;;;;;6.82;3.72;;;-4.10;99.90;;;-4.80;100.00;102458.69;5254331;28;20406;-44
2024/01/11 00:24:53;;;;;;;10.55;4.63;;;-4.10;99.90;;;-4.82;100.00;102455.06;5246585;28;20410;-46
2024/01/11 00:27:27;;;;;;;10.88;4.38;;;-4.20;99.90;;;-4.83;100.00;102448.13;5253774;28;20044;-45
2024/01/11 00:29:59;;;;;;;5.38;4.18;;;-4.20;99.90;;;-4.84;100.00;102457.38;5253118;28;20230;-44
2024/01/11 00:32:32;;;;;;;4.65;3.05;;;-4.20;99.90;;;-4.87;100.00;102457.03;5252107;28;20107;-45
2024/01/11 00:35:05;;;;;;;10.13;4.63;;;-4.20;99.90;;;-4.91;100.00;102448.09;5253878;28;20513;-46
2024/01/11 00:37:38;;;;;;;4.10;3.05;;;-4.20;99.90;;;-4.94;100.00;102460.44;5250249;28;20044;-44
2024/01/11 00:40:11;;;;;;;7.68;3.65;;;-4.30;99.90;;;-4.96;100.00;102466.06;5242883;28;20410;-44
2024/01/11 00:42:45;;;;;;;4.72;2.83;;;-4.30;99.90;;;-5.00;100.00;102464.78;5244913;28;20429;-46
2024/01/11 00:45:18;;;;;;;8.63;3.13;;;-4.30;99.90;;;-5.01;100.00;102465.50;5261208;28;20350;-43
2024/01/11 00:47:50;;;;;;;12.50;3.35;;;-4.30;99.90;;;-4.99;100.00;102469.16;5256072;28;20041;-44
2024/01/11 00:50:23;;;;;;;8.85;3.58;;;-4.30;99.90;;;-4.98;100.00;102467.50;5254852;28;20052;-45
2024/01/11 00:52:55;;;;;;;7.70;2.92;;;-4.30;99.90;;;-4.98;100.00;102464.97;5259023;28;20044;-44
2024/01/11 00:55:27;;;;;;;11.82;4.70;;;-4.30;99.90;;;-4.97;100.00;102470.22;5256282;28;20052;-45
2024/01/11 00:58:01;;;;;;;7.82;3.05;;;-4.30;99.90;;;-4.97;100.00;102474.41;5247236;28;20101;-44
2024/01/11 01:00:34;;;;;;;2.60;2.38;;;-4.30;99.90;;;-5.00;100.00;102480.06;5254877;28;20044;-44
2024/01/11 01:03:06;;;;;;;7.45;2.95;;;-4.30;99.90;;;-5.02;100.00;102480.56;5273386;28;20075;-44
2024/01/11 01:05:39;;;;;;;10.27;4.30;;;-4.30;99.90;;;-5.05;100.00;102470.94;5259809;28;20522;-44
2024/01/11 01:08:11;;;;;;;4.47;3.05;;;-4.40;99.90;;;-5.07;100.00;102471.47;5265808;28;20040;-45
2024/01/11 01:10:44;;;;;;;6.85;3.75;;;-4.40;99.90;;;-5.10;100.00;102466.91;5263505;28;20053;-45
2024/01/11 01:13:17;;;;;;;9.63;5.45;;;-4.40;99.90;;;-5.10;100.00;102468.53;5261810;28;20040;-45
2024/01/11 01:15:50;;;;;;;2.80;2.42;;;-4.40;99.90;;;-5.09;100.00;102465.28;5254126;28;20230;-44
2024/01/11 01:18:22;;;;;;;7.18;3.50;;;-4.40;99.90;;;-5.10;100.00;102468.53;5257874;28;20097;-44
2024/01/11 01:20:55;;;;;;;7.05;2.85;;;-4.40;99.90;;;-5.13;100.00;102465.63;5250391;28;20179;-44
2024/01/11 01:23:27;;;;;;;4.85;3.78;;;-4.50;99.90;;;-5.13;100.00;102468.19;5254296;28;20098;-44
2024/01/11 01:25:59;;;;;;;8.55;4.82;;;-4.50;99.90;;;-5.15;100.00;102472.16;5254877;28;20044;-44
2024/01/11 01:28:33;;;;;;;5.63;4.07;;;-4.50;99.90;;;-5.19;100.00;102470.88;5262814;28;20040;-44
2024/01/11 01:31:06;;;;;;;8.65;4.05;;;-4.50;99.90;;;-5.18;100.00;102477.78;5262436;28;20056;-45
2024/01/11 01:33:38;;;;;;;7.53;4.35;;;-4.50;99.90;;;-5.18;100.00;102472.69;5254263;28;20388;-45
2024/01/11 01:36:11;;;;;;;7.60;3.80;;;-4.50;99.90;;;-5.14;100.00;102479.09;5262273;28;20051;-44
2024/01/11 01:38:44;;;;;;;7.25;3.30;;;-4.50;99.90;;;-5.16;100.00;102485.59;5260414;28;20422;-43
2024/01/11 01:41:16;;;;;;;13.95;3.42;;;-4.50;99.90;;;-5.19;100.00;102488.66;5263863;28;20048;-44
2024/01/11 01:43:50;;;;;;;10.57;3.58;;;-4.50;99.90;;;-5.24;100.00;102493.19;5253144;28;20044;-44
2024/01/11 01:46:26;;;;;;;8.75;4.75;;;-4.50;99.90;;;-5.26;100.00;102493.72;5247079;28;20058;-45
2024/01/11 01:48:59;;;;;;;5.45;3.22;;;-4.60;99.90;;;-5.28;100.00;102495.13;5258073;28;20048;-44
2024/01/11 01:51:33;;;;;;;4.20;3.80;;;-4.60;99.90;;;-5.30;100.00;102491.50;5246097;28;20056;-44
2024/01/11 01:54:06;;;;;;;5.03;3.03;;;-4.60;99.90;;;-5.32;100.00;102491.31;5272298;28;20048;-46
2024/01/11 01:56:38;;;;;;;6.07;3.50;;;-4.60;99.90;;;-5.33;100.00;102489.50;5255606;28;20074;-45
2024/01/11 01:59:13;;;;;;;11.27;3.83;;;-4.60;99.90;;;-5.33;100.00;102491.13;5259528;28;20044;-45
2024/01/11 02:01:46;;;;;;;12.15;5.45;;;-4.60;99.90;;;-5.34;100.00;102499.50;5249066;28;20055;-44
2024/01/11 02:04:18;;;;;;;11.07;3.95;;;-4.60;99.90;;;-5.35;100.00;102501.09;5258086;28;20045;-44
2024/01/11 02:06:52;;;;;;;5.25;3.53;;;-4.70;99.90;;;-5.35;100.00;102498.56;5245167;28;20139;-44
2024/01/11 02:09:26;;;;;;;4.95;4.07;;;-4.70;99.90;;;-5.36;100.00;102496.72;5255523;28;20049;-45
2024/01/11 02:11:59;;;;;;;4.57;3.63;;;-4.60;99.90;;;-5.35;100.00;102497.66;5245231;28;20164;-45
2024/01/11 02:14:33;;;;;;;9.68;5.20;;;-4.60;99.90;;;-5.36;100.00;102506.91;5254053;28;20064;-44
2024/01/11 02:17:06;;;;;;;4.25;3.85;;;-4.70;99.90;;;-5.40;100.00;102499.63;5254451;28;20094;-45
2024/01/11 02:19:38;;;;;;;12.45;3.55;;;-4.70;99.90;;;-5.40;100.00;102504.72;5262060;28;20041;-45
2024/01/11 02:22:24;;;;;;;8.82;5.28;;;-4.70;99.90;;;-5.41;100.00;102497.81;5244824;28;20055;-45
2024/01/11 02:24:58;;;;;;;4.97;3.10;;;-4.70;99.90;;;-5.42;100.00;102501.06;5256845;28;20048;-47
2024/01/11 02:27:30;;;;;;;5.32;3.70;;;-4.70;99.90;;;-5.43;100.00;102499.22;5257288;28;20044;-45
2024/01/11 02:30:02;;;;;;;4.70;3.40;;;-4.70;99.90;;;-5.44;100.00;102501.59;5255164;28;20048;-44
2024/01/11 02:32:35;;;;;;;12.35;4.10;;;-4.70;99.90;;;-5.45;100.00;102500.69;5252802;28;20218;-45
2024/01/11 02:35:08;;;;;;;5.47;4.43;;;-4.70;99.90;;;-5.48;100.00;102506.31;5261865;28;20547;-44
2024/01/11 02:37:41;;;;;;;9.77;4.50;;;-4.80;99.90;;;-5.51;100.00;102505.00;5254439;28;20586;-45
2024/01/11 02:40:15;;;;;;;8.15;3.22;;;-4.80;99.90;;;-5.55;100.00;102502.78;5254918;28;20035;-44
2024/01/11 02:42:48;;;;;;;15.40;3.92;;;-4.80;99.90;;;-5.58;100.00;102502.41;5254873;28;20449;-44
2024/01/11 02:45:20;;;;;;;5.13;2.72;;;-4.90;99.90;;;-5.56;100.00;102498.41;5253557;28;20499;-44
2024/01/11 02:47:52;;;;;;;9.27;5.07;;;-4.80;99.90;;;-5.54;100.00;102497.00;5256421;28;20044;-44
2024/01/11 02:50:25;;;;;;;3.97;3.15;;;-4.90;99.90;;;-5.52;100.00;102488.84;5249924;28;20048;-44
2024/01/11 02:52:57;;;;;;;4.10;3.47;;;-4.80;99.90;;;-5.49;100.00;102493.38;5257422;28;20076;-44
2024/01/11 02:55:31;;;;;;;10.48;3.10;;;-4.80;99.90;;;-5.47;100.00;102499.59;5250712;28;20075;-44
2024/01/11 02:58:04;;;;;;;4.03;2.72;;;-4.80;99.90;;;-5.51;100.00;102497.38;5260922;28;20140;-45
2024/01/11 03:00:36;;;;;;;9.05;5.28;;;-4.80;99.90;;;-5.50;100.00;102494.09;5264899;28;20460;-44
2024/01/11 03:03:08;;;;;;;7.50;4.20;;;-4.80;99.90;;;-5.52;100.00;102482.84;5255666;28;20044;-44
2024/01/11 03:05:41;;;;;;;14.68;3.67;;;-4.80;99.90;;;-5.54;100.00;102484.31;5249350;28;20056;-44
2024/01/11 03:08:14;;;;;;;4.35;2.72;;;-4.90;99.90;;;-5.57;100.00;102488.97;5255887;28;20036;-46
2024/01/11 03:10:47;;;;;;;9.93;4.35;;;-4.90;99.90;;;-5.59;100.00;102487.88;5250852;28;20068;-44
2024/01/11 03:13:20;;;;;;;7.05;5.38;;;-4.90;99.90;;;-5.63;100.00;102488.22;5243661;28;20076;-44
2024/01/11 03:15:52;;;;;;;7.78;3.20;;;-4.90;99.90;;;-5.66;100.00;102485.31;5255644;28;20896;-45
2024/01/11 03:18:24;;;;;;;9.60;3.33;;;-4.90;99.90;;;-5.67;100.00;102478.38;5252539;28;20052;-45
2024/01/11 03:20:57;;;;;;;10.98;4.38;;;-5.00;99.90;;;-5.69;100.00;102475.63;5244224;28;20457;-43
2024/01/11 03:23:29;;;;;;;5.78;3.90;;;-5.00;99.90;;;-5.68;100.00;102479.09;5263530;28;20417;-45
2024/01/11 03:26:14;;;;;;;10.38;3.97;;;-5.00;99.90;;;-5.71;100.00;102478.72;5251833;28;20052;-45
2024/01/11 03:28:46;;;;;;;9.05;3.03;;;-5.00;99.90;;;-5.75;100.00;102468.16;5251852;28;20050;-44
2024/01/11 03:31:19;;;;;;;6.35;4.78;;;-5.00;99.90;;;-5.76;100.00;102475.59;5259146;28;20321;-45
2024/01/11 03:33:51;;;;;;;2.50;2.30;;;-5.00;99.90;;;-5.75;100.00;102467.25;5259217;28;20047;-44
2024/01/11 03:36:25;;;;;;;6.43;3.47;;;-5.00;99.90;;;-5.71;100.00;102461.84;5253058;28;20076;-44
2024/01/11 03:38:58;;;;;;;7.43;3.83;;;-5.00;99.90;;;-5.68;100.00;102458.75;5253430;28;20055;-44
2024/01/11 03:41:31;;;;;;;8.45;3.13;;;-5.00;99.90;;;-5.70;100.00;102461.13;5264318;28;20044;-45
2024/01/11 03:44:04;;;;;;;5.43;3.85;;;-5.00;99.90;;;-5.73;100.00;102455.66;5264281;28;20379;-45
2024/01/11 03:46:36;;;;;;;18.05;4.63;;;-5.00;99.90;;;-5.75;100.00;102463.06;5254467;28;20082;-45
2024/01/11 03:49:09;;;;;;;5.03;3.58;;;-5.00;99.90;;;-5.79;100.00;102470.16;5252499;28;20903;-44
2024/01/11 03:51:41;;;;;;;6.53;3.97;;;-5.00;99.90;;;-5.79;100.00;102465.06;5248916;28;20560;-44
2024/01/11 03:54:14;;;;;;;10.57;4.85;;;-5.10;99.90;;;-5.79;100.00;102471.06;5254568;28;20053;-45
2024/01/11 03:56:48;;;;;;;15.45;4.68;;;-5.10;99.90;;;-5.81;100.00;102476.63;5251702;28;20105;-44
2024/01/11 03:59:20;;;;;;;21.00;5.55;;;-5.10;99.90;;;-5.81;100.00;102466.47;5256903;28;20048;-45
2024/01/11 04:01:53;;;;;;;8.57;4.18;;;-5.10;99.90;;;-5.80;100.00;102464.16;5257640;28;20523;-44
2024/01/11 04:04:26;;;;;;;7.95;4.55;;;-5.10;99.90;;;-5.79;100.00;102465.06;5251396;28;20056;-45
2024/01/11 04:06:58;;;;;;;11.00;5.03;;;-5.10;99.90;;;-5.82;100.00;102468.09;5263652;28;20473;-45
2024/01/11 04:09:30;;;;;;;10.50;6.13;;;-5.10;99.90;;;-5.86;100.00;102465.00;5246988;28;20114;-44
2024/01/11 04:12:05;;;;;;;5.82;4.35;;;-5.10;99.90;;;-5.89;100.00;102473.13;5247883;28;20094;-45
2024/01/11 04:14:40;;;;;;;5.75;3.58;;;-5.10;99.90;;;-5.90;100.00;102481.47;5244354;28;20537;-45
2024/01/11 04:17:12;;;;;;;7.40;5.07;;;-5.10;99.90;;;-5.91;100.00;102489.84;5248327;28;20162;-46
2024/01/11 04:19:45;;;;;;;9.18;3.05;;;-5.20;99.90;;;-5.91;100.00;102494.94;5252441;28;20525;-44
2024/01/11 04:22:17;;;;;;;3.25;2.85;;;-5.20;99.90;;;-5.93;100.00;102497.97;5250996;28;20132;-43
2024/01/11 04:24:49;;;;;;;2.72;1.98;;;-5.20;99.90;;;-5.95;100.00;102504.50;5258116;28;20451;-43
2024/01/11 04:27:23;;;;;;;8.52;3.70;;;-5.20;99.90;;;-5.95;100.00;102507.03;5261335;28;20100;-45
2024/01/11 04:29:56;;;;;;;11.45;3.72;;;-5.20;99.90;;;-5.96;100.00;102495.97;5252014;28;20136;-44
2024/01/11 04:32:28;;;;;;;8.82;4.53;;;-5.30;99.90;;;-5.97;100.00;102494.16;5258335;28;20048;-45
2024/01/11 04:35:01;;;;;;;6.68;3.72;;;-5.20;99.90;;;-5.97;100.00;102499.22;5252875;28;20048;-45
2024/01/11 04:37:35;;;;;;;5.65;4.43;;;-5.20;99.90;;;-5.97;100.00;102504.31;5254288;28;20044;-45
2024/01/11 04:40:09;;;;;;;4.13;2.95;;;-5.20;99.90;;;-5.97;100.00;102514.47;5266653;28;20125;-45
2024/01/11 04:42:43;;;;;;;11.52;4.88;;;-5.20;99.90;;;-5.98;100.00;102511.75;5270704;28;20063;-45
2024/01/11 04:45:16;;;;;;;8.82;3.95;;;-5.30;99.90;;;-6.01;100.00;102515.69;5259809;28;20041;-46
2024/01/11 04:47:51;;;;;;;7.45;4.35;;;-5.30;99.90;;;-6.02;100.00;102518.03;5251434;28;20127;-44
2024/01/11 04:50:23;;;;;;;5.10;4.55;;;-5.30;99.90;;;-6.04;100.00;102514.41;5267821;28;20053;-45
2024/01/11 04:52:56;;;;;;;4.43;3.20;;;-5.30;99.90;;;-6.06;100.00;102514.22;5266032;28;20139;-44
2024/01/11 04:55:28;;;;;;;6.28;3.72;;;-5.30;99.90;;;-6.04;100.00;102516.94;5265245;28;20084;-44
2024/01/11 04:58:02;;;;;;;13.40;5.07;;;-5.30;99.90;;;-6.05;100.00;102515.13;5258020;28;20063;-45
2024/01/11 05:00:34;;;;;;;5.65;3.78;;;-5.30;99.90;;;-6.07;100.00;102512.38;5283760;28;20060;-44
2024/01/11 05:03:06;;;;;;;6.53;2.97;;;-5.30;99.90;;;-6.07;100.00;102519.06;5271189;28;20139;-44
2024/01/11 05:05:39;;;;;;;9.65;3.65;;;-5.40;99.90;;;-6.08;100.00;102525.78;5257621;28;20044;-45
2024/01/11 05:08:15;;;;;;;6.28;3.25;;;-5.30;99.90;;;-6.09;100.00;102523.06;5255918;28;20499;-45
2024/01/11 05:10:47;;;;;;;4.47;3.00;;;-5.30;99.90;;;-6.09;100.00;102523.06;5261199;28;20041;-45
2024/01/11 05:13:21;;;;;;;3.88;3.17;;;-5.40;99.90;;;-6.11;100.00;102532.13;5259407;28;20101;-46
2024/01/11 05:15:53;;;;;;;9.77;4.70;;;-5.40;99.90;;;-6.14;100.00;102530.06;5259270;28;20056;-46
2024/01/11 05:18:25;;;;;;;8.15;4.97;;;-5.40;99.90;;;-6.16;100.00;102530.63;5249323;28;20074;-44
2024/01/11 05:20:58;;;;;;;4.47;2.50;;;-5.40;99.90;;;-6.15;100.00;102547.66;5249180;28;20056;-45
2024/01/11 05:23:30;;;;;;;9.88;5.05;;;-5.40;99.90;;;-6.15;100.00;102532.44;5251103;28;20044;-44
2024/01/11 05:26:03;;;;;;;7.53;4.40;;;-5.40;99.90;;;-6.15;100.00;102529.88;5259538;28;20056;-44
2024/01/11 05:28:38;;;;;;;4.00;2.70;;;-5.40;99.90;;;-6.14;100.00;102524.09;5268443;28;20727;-44
2024/01/11 05:31:12;;;;;;;4.45;3.03;;;-5.40;99.90;;;-6.13;100.00;102521.78;5253832;28;20044;-44
2024/01/11 05:33:44;;;;;;;7.43;3.15;;;-5.40;99.90;;;-6.12;100.00;102522.69;5254285;28;20052;-45
2024/01/11 05:36:17;;;;;;;3.17;2.97;;;-5.40;99.90;;;-6.13;100.00;102526.84;5262478;28;20047;-45
2024/01/11 05:38:49;;;;;;;3.47;3.00;;;-5.40;99.90;;;-6.12;100.00;102537.91;5254050;28;20067;-44
2024/01/11 05:41:21;;;;;;;7.75;4.13;;;-5.40;99.90;;;-6.16;100.00;102540.75;5256135;28;20053;-44
2024/01/11 05:43:55;;;;;;;9.15;3.97;;;-5.40;99.90;;;-6.22;100.00;102539.97;5253383;28;20116;-46
2024/01/11 05:46:27;;;;;;;8.65;3.60;;;-5.50;99.90;;;-6.26;100.00;102553.88;5266465;28;20056;-44
2024/01/11 05:49:00;;;;;;;6.18;4.40;;;-5.50;99.90;;;-6.29;100.00;102561.13;5251905;28;20090;-46
2024/01/11 05:51:32;;;;;;;4.53;3.00;;;-5.50;99.90;;;-6.29;100.00;102553.50;5258384;28;20062;-44
2024/01/11 05:54:05;;;;;;;3.60;3.17;;;-5.50;99.90;;;-6.30;100.00;102550.06;5259576;28;20067;-43
2024/01/11 05:56:37;;;;;;;4.80;2.78;;;-5.60;99.90;;;-6.29;100.00;102558.59;5255077;28;20055;-44
2024/01/11 05:59:11;;;;;;;12.82;3.15;;;-5.60;99.90;;;-6.30;100.00;102565.28;5249151;28;20406;-44
2024/01/11 06:01:43;;;;;;;6.80;3.90;;;-5.60;99.90;;;-6.32;100.00;102574.34;5267574;28;20044;-45
2024/01/11 06:04:19;;;;;;;10.75;3.90;;;-5.60;99.90;;;-6.36;100.00;102567.03;5257565;28;20117;-44
2024/01/11 06:06:51;;;;;;;3.55;3.22;;;-5.60;99.90;;;-6.35;100.00;102552.72;5245376;28;20513;-44
2024/01/11 06:09:24;;;;;;;4.95;3.67;;;-5.60;99.90;;;-6.35;100.00;102558.69;5257121;28;20213;-44
2024/01/11 06:11:56;;;;;;;5.60;3.92;;;-5.60;99.90;;;-6.34;100.00;102559.59;5274454;28;20135;-45
2024/01/11 06:14:30;;;;;;;12.55;4.90;;;-5.60;99.90;;;-6.35;100.00;102570.47;5247937;28;20458;-45
2024/01/11 06:17:02;;;;;;;4.72;3.35;;;-5.60;99.90;;;-6.38;100.00;102588.78;5253674;28;20063;-45
2024/01/11 06:19:35;;;;;;;3.47;2.92;;;-5.60;99.90;;;-6.40;100.00;102585.09;5250948;28;20507;-46
2024/01/11 06:22:07;;;;;;;16.00;4.63;;;-5.60;99.90;;;-6.43;100.00;102582.19;5252200;28;20168;-44
2024/01/11 06:24:39;;;;;;;3.13;1.75;;;-5.70;99.90;;;-6.45;100.00;102581.09;5255860;28;20068;-43
2024/01/11 06:27:12;;;;;;;5.00;3.80;;;-5.70;99.90;;;-6.45;100.00;102596.31;5263190;28;20040;-44
2024/01/11 06:29:46;;;;;;;5.65;3.35;;;-5.70;99.90;;;-6.44;100.00;102589.59;5253012;28;20048;-44
2024/01/11 06:32:18;;;;;;;3.28;3.03;;;-5.70;99.90;;;-6.45;100.00;102595.41;5264134;28;20055;-44
2024/01/11 06:34:51;;;;;;;3.88;3.55;;;-5.70;99.90;;;-6.47;100.00;102601.88;5250484;28;20044;-44
2024/01/11 06:37:23;;;;;;;12.70;3.67;;;-5.70;99.90;;;-6.47;100.00;102604.41;5247811;28;20519;-44
2024/01/11 06:39:55;;;;;;;4.55;4.15;;;-5.70;99.90;;;-6.49;100.00;102594.06;5260457;28;20150;-45
2024/01/11 06:42:28;;;;;;;19.55;5.80;;;-5.80;99.90;;;-6.48;100.00;102590.81;5243383;28;20438;-44
2024/01/11 06:45:03;;;;;;;4.32;3.10;;;-5.70;99.90;;;-6.45;100.00;102590.31;5263208;28;20071;-45
2024/01/11 06:47:35;;;;;;;9.63;4.78;;;-5.70;99.90;;;-6.46;100.00;102594.44;5253569;28;20064;-44
2024/01/11 06:50:09;;;;;;;3.80;3.15;;;-5.70;99.90;;;-6.45;100.00;102606.44;5254795;28;20423;-45
2024/01/11 06:52:41;;;;;;;5.50;3.53;;;-5.70;99.90;;;-6.45;100.00;102616.59;5249190;28;20049;-45
2024/01/11 06:55:14;;;;;;;3.53;2.03;;;-5.70;99.90;;;-6.49;100.00;102610.91;5247397;28;20048;-44
2024/01/11 06:57:49;;;;;;;11.57;6.32;;;-5.70;99.90;;;-6.52;100.00;102606.38;5252328;28;20068;-44
2024/01/11 07:00:25;;;;;;;3.88;3.05;;;-5.70;99.90;;;-6.51;100.00;102605.66;5260677;28;20135;-45
2024/01/11 07:02:58;;;;;;;10.50;3.33;;;-5.80;99.90;;;-6.48;100.00;102611.09;5259742;28;20148;-45
2024/01/11 07:05:30;;;;;;;9.52;4.05;;;-5.70;99.90;;;-6.45;100.00;102613.16;5252445;28;20044;-46
2024/01/11 07:08:04;;;;;;;6.70;4.00;;;-5.70;99.90;;;-6.42;100.00;102608.47;5255961;28;20055;-44
2024/01/11 07:10:37;;;;;;;2.80;2.35;;;-5.70;99.90;;;-6.42;100.00;102605.94;5244188;28;20040;-44
2024/01/11 07:13:11;;;;;;;11.40;4.38;;;-5.70;99.90;;;-6.44;100.00;102608.28;5254081;28;20040;-43
2024/01/11 07:15:45;;;;;;;17.08;5.32;;;-5.70;99.90;;;-6.43;100.00;102610.09;5249970;28;20446;-45
2024/01/11 07:18:17;;;;;;;9.57;4.40;;;-5.70;99.90;;;-6.45;100.00;102606.44;5252313;28;20037;-44
2024/01/11 07:20:49;;;;;;;13.45;6.10;;;-5.70;99.90;;;-6.45;100.00;102603.91;5254136;28;20131;-45
2024/01/11 07:23:22;;;;;;;5.10;3.70;;;-5.70;99.90;;;-6.45;100.00;102603.91;5248350;28;20044;-45
2024/01/11 07:25:54;;;;;;;14.15;4.30;;;-5.70;99.90;;;-6.42;100.00;102598.31;5244122;28;20129;-44
2024/01/11 07:28:27;;;;;;;6.07;5.47;;;-5.70;99.90;;;-6.42;100.00;102598.31;5247433;28;20202;-45
2024/01/11 07:31:00;;;;;;;10.52;4.50;;;-5.70;99.90;;;-6.40;100.00;102590.19;5253807;28;20043;-45
2024/01/11 07:33:33;;;;;;;7.65;5.20;;;-5.70;99.90;;;-6.38;100.00;102596.38;5251425;28;20040;-45
2024/01/11 07:36:07;;;;;;;10.93;5.35;;;-5.60;99.90;;;-6.38;100.00;102587.88;5254902;28;20044;-44
2024/01/11 07:38:40;;;;;;;16.23;6.75;;;-5.70;99.90;;;-6.35;100.00;102604.38;5250526;28;20048;-44
2024/01/11 07:41:12;;;;;;;9.77;6.50;;;-5.60;99.90;;;-6.32;100.00;102614.94;5262668;28;20048;-46
2024/01/11 07:43:44;;;;;;;17.83;9.50;;;-5.60;99.90;;;-6.31;100.00;102610.78;5264312;28;20059;-44
2024/01/11 07:46:18;;;;;;;18.63;8.68;;;-5.60;99.90;;;-6.30;100.00;102622.75;5258291;28;20457;-44
2024/01/11 07:48:51;;;;;;;16.50;6.95;;;-5.60;99.90;;;-6.31;100.00;102629.47;5248165;28;20044;-44
2024/01/11 07:51:23;;;;;;;7.78;4.18;;;-5.50;99.90;;;-6.31;100.00;102638.72;5246560;28;20040;-45
2024/01/11 07:53:55;;;;;;;7.85;5.25;;;-5.60;99.90;;;-6.31;100.00;102639.63;5256521;28;20517;-44
2024/01/11 07:56:31;;;;;;;5.60;4.43;;;-5.60;99.90;;;-6.29;100.00;102642.34;5245067;28;20040;-46
2024/01/11 07:59:04;;;;;;;12.40;5.10;;;-5.60;99.90;;;-6.28;100.00;102642.53;5248564;28;20040;-44
2024/01/11 08:01:37;;;;;;;7.05;4.82;;;-5.50;99.90;;;-6.24;100.00;102658.19;5262546;28;20044;-46
2024/01/11 08:04:10;;;;;;;6.00;4.25;;;-5.50;99.90;;;-6.22;100.00;102660.19;5254375;28;20050;-46
2024/01/11 08:06:43;;;;;;;3.60;2.90;;;-5.50;99.90;;;-6.17;100.00;102670.97;5260905;28;20084;-45
2024/01/11 08:09:15;;;;;;;4.90;3.78;;;-5.50;99.90;;;-6.15;100.00;102674.59;5258208;28;20045;-46
2024/01/11 08:11:47;;;;;;;5.25;2.90;;;-5.40;99.90;;;-6.14;100.00;102667.19;5259615;28;20498;-44
2024/01/11 08:14:20;;;;;;;11.45;4.47;;;-5.40;99.90;;;-6.13;100.00;102671.56;5253820;28;20063;-44
2024/01/11 08:16:54;;;;;;;9.70;2.55;;;-5.40;99.90;;;-6.05;100.00;102676.03;5256482;28;20037;-44
2024/01/11 08:19:27;;;;;;;3.30;2.63;;;-5.40;99.90;;;-5.96;100.00;102673.75;5258615;28;20045;-44
2024/01/11 08:21:59;;;;;;;6.80;3.80;;;-5.30;99.90;;;-5.93;100.00;102668.13;5243097;28;20044;-44
2024/01/11 08:24:32;;;;;;;5.53;3.35;;;-5.20;99.90;;;-5.91;100.00;102662.56;5264234;28;20056;-43
2024/01/11 08:27:05;;;;;;;9.45;4.60;;;-5.20;99.90;;;-5.88;100.00;102672.16;5247917;28;20094;-45
2024/01/11 08:29:41;;;;;;;6.63;3.78;;;-5.20;99.90;;;-5.84;100.00;102661.69;5246764;28;20051;-45
2024/01/11 08:32:16;;;;;;;4.57;2.22;;;-5.10;99.90;;;-5.81;100.00;102657.91;5261998;28;20044;-43
2024/01/11 08:34:49;;;;;;;8.60;3.17;;;-5.10;99.90;;;-5.76;100.00;102667.03;5261225;28;20044;-43
2024/01/11 08:37:21;;;;;;;8.82;6.47;;;-5.10;99.90;;;-5.69;100.00;102670.38;5259899;28;20047;-44
2024/01/11 08:39:55;;;;;;;5.03;4.63;;;-5.00;99.90;;;-5.65;100.00;102664.97;5251176;28;20033;-44
2024/01/11 08:42:27;;;;;;;12.10;4.50;;;-5.00;99.90;;;-5.60;100.00;102661.41;5270359;28;20660;-44
2024/01/11 08:45:06;;;;;;;5.40;3.22;;;-4.90;99.90;;;-5.49;100.00;102661.13;5251588;28;20072;-44
2024/01/11 08:47:40;;;;;;;21.58;8.52;;;-4.90;99.90;;;-5.42;100.00;102648.47;5211354;28;20048;-44
2024/01/11 08:50:14;;;;;;;12.30;7.25;;;-4.70;99.90;;;-5.38;100.00;102657.44;5254204;28;20032;-44
2024/01/11 08:52:46;;;;;;;21.10;6.00;;;-4.70;99.90;;;-5.35;100.00;102653.63;5242492;28;20418;-44
2024/01/11 08:55:19;;;;;;;10.68;6.03;;;-4.70;99.90;;;-5.31;100.00;102655.84;5247743;28;20048;-44
2024/01/11 08:57:51;;;;;;;11.23;5.25;;;-4.60;99.90;;;-5.24;100.00;102650.81;5252061;28;20104;-45
2024/01/11 09:00:23;;;;;;;10.63;5.03;;;-4.60;99.90;;;-5.18;100.00;102641.44;5246489;28;20055;-43
2024/01/11 09:02:57;;;;;;;9.90;5.50;;;-4.50;99.90;;;-5.07;100.00;102641.88;5245117;28;20050;-44
2024/01/11 09:05:29;;;;;;;7.60;4.45;;;-4.40;99.90;;;-5.00;100.00;102644.47;5268675;28;20101;-45
2024/01/11 09:08:06;;;;;;;11.88;6.22;;;-4.40;99.90;;;-4.95;100.00;102648.50;5257998;28;20047;-44
2024/01/11 09:10:41;;;;;;;5.53;4.90;;;-4.30;99.90;;;-4.83;100.00;102652.56;5246432;28;20492;-44
2024/01/11 09:13:15;;;;;;;10.98;5.53;;;-4.20;99.90;;;-4.76;100.00;102654.25;5249215;28;20066;-44
2024/01/11 09:15:47;;;;;;;9.25;5.35;;;-4.20;99.90;;;-4.65;100.00;102646.31;5256315;28;20045;-44
2024/01/11 09:18:22;;;;;;;6.93;3.92;;;-4.10;99.90;;;-4.57;100.00;102662.53;5251823;28;20070;-43
2024/01/11 09:20:56;;;;;;;9.10;5.53;;;-4.00;99.90;;;-4.48;100.00;102668.78;5263677;28;20051;-44
2024/01/11 09:23:28;;;;;;;6.47;5.65;;;-3.90;99.90;;;-4.41;100.00;102674.81;5263166;28;20056;-44
2024/01/11 09:26:00;;;;;;;10.20;5.22;;;-3.80;99.90;;;-4.34;100.00;102676.50;5264207;28;20075;-45
2024/01/11 09:28:33;;;;;;;6.65;3.92;;;-3.70;99.90;;;-4.27;100.00;102686.72;5255599;28;20520;-44
2024/01/11 09:31:05;;;;;;;9.82;4.72;;;-3.70;99.90;;;-4.17;100.00;102686.22;5263526;28;20441;-45
2024/01/11 09:33:39;;;;;;;14.20;5.07;;;-3.60;99.90;;;-4.10;100.00;102682.06;5249904;28;20052;-45
2024/01/11 09:36:13;;;;;;;10.20;4.55;;;-3.50;99.90;;;-4.03;100.00;102671.00;5257070;28;20066;-44
2024/01/11 09:38:46;;;;;;;8.25;3.95;;;-3.40;99.90;;;-3.97;100.00;102663.19;5260200;28;20506;-44
2024/01/11 09:41:19;;;;;;;11.68;4.43;;;-3.40;99.90;;;-3.91;100.00;102667.41;5266691;28;20047;-45
2024/01/11 09:43:57;;;;;;;13.27;6.05;;;-3.30;99.90;;;-3.81;100.00;102666.88;5260849;28;20055;-43
2024/01/11 09:46:30;;;;;;;9.50;6.15;;;-3.30;99.90;;;-3.71;100.00;102674.91;5250603;28;20102;-45
2024/01/11 09:49:05;;;;;;;15.48;6.40;;;-3.20;99.90;;;-3.59;100.00;102681.50;5250404;28;20064;-44
2024/01/11 09:51:41;;;;;;;9.73;5.30;;;-3.10;99.90;;;-3.48;100.00;102675.13;5251383;28;20052;-44
2024/01/11 09:54:14;;;;;;;;;;;-3.00;99.90;;;-3.34;100.00;102694.63;5257976;28;20456;-45
2024/01/11 09:56:47;;;;;;;13.95;5.47;;;-2.90;99.90;;;-3.23;100.00;102698.47;5251592;28;19924;-43
2024/01/11 09:59:22;;;;;;;10.20;5.85;;;-2.80;99.90;;;-3.11;100.00;102695.75;5255108;28;20086;-44
2024/01/11 10:01:54;;;;;;;13.65;5.55;;;-2.70;99.90;;;-2.97;100.00;102688.81;5255235;28;20045;-45
2024/01/11 10:04:31;;;;;;;12.52;5.47;;;-2.60;99.90;;;-2.85;100.00;102680.97;5260117;28;20044;-44
2024/01/11 10:07:07;;;;;;;13.70;5.63;;;-2.50;99.90;;;-2.70;100.00;102692.06;5255167;28;20040;-44
2024/01/11 10:09:39;;;;;;;9.35;5.28;;;-2.30;99.90;;;-2.55;100.00;102688.75;5256290;28;20051;-45
2024/01/11 10:12:12;;;;;;;12.43;5.03;;;-2.20;99.90;;;-2.44;100.00;102689.09;5250238;28;20043;-44
2024/01/11 10:14:48;;;;;;;11.98;5.90;;;-2.10;99.90;;;-2.37;100.00;102689.09;5257005;28;20055;-44
2024/01/11 10:17:20;;;;;;;10.05;6.47;;;-2.00;99.90;;;-2.26;100.00;102693.78;5256411;28;20340;-44
2024/01/11 10:19:55;;;;;;;10.32;6.28;;;-1.90;99.90;;;-2.15;100.00;102693.41;5266040;28;20576;-44
2024/01/11 10:22:28;;;;;;;22.05;6.85;;;-1.80;99.90;;;-2.05;100.00;102690.25;5245392;28;20067;-45
2024/01/11 10:25:12;;;;;;;22.23;6.68;;;-1.70;99.90;;;-1.94;100.00;102685.63;5254457;28;20578;-45
2024/01/11 10:27:46;;;;;;;17.27;6.65;;;-1.60;99.90;;;-1.83;100.00;102689.41;5258252;28;20032;-45
2024/01/11 10:30:20;;;;;;;16.20;6.80;;;-1.50;99.90;;;-1.75;100.00;102687.75;5251193;28;20044;-44